Tropical Cyclones
[Index]
Main Index Home Page Stock Weather Photos Extreme Storms Discussion Storm News and Storm Chasing Reports Tropical Cyclones / Hurricanes / Typhoons Weather Data and Links Wild Fires / Bushfires Weather Observation Techniques Weather Picture Catalogue Tornado Pictures and Reports Stock Video Footage and DVDs for sale
Season 1976-1977 Tropical Cyclone LEO Track Map
Season 1976-1977 Summaries: [BoM-AU] [JTWC-AU] [JTWC-SIO] [JTWC-SPAC] [JTWC-SH]
<<- Previous TC | BoM 1976-1977 Season | Next TC ->>

click for intensity scale information  Lat/long Grid: Show Hide

 Date Labels: Show Hide

Bureau of Meteorology Tropical Cyclone Data

Name: LEO
Number: 573 / 197677_12

24 Mar 1977 01:00 UTC to 28 Mar 1977 01:00 UTC

    date/time    lat    long    hPa   cat  kts
1977-03-24 01   15.6   124.8   1005         25          
1977-03-24 04   15.5   124.3   1003         25          
1977-03-24 07   15.5   123.9   1000         30          
1977-03-24 10   15.4   123.4    998         30          
1977-03-24 13   15.5   123.0    995    1    35          
1977-03-24 16   15.7   122.6    993    1    40          
1977-03-24 19   16.0   122.1    992    1    45          
1977-03-24 22   16.2   121.7    991    1    45          
1977-03-25 01   16.5   121.3    990    1    50          
1977-03-25 04   16.7   120.9    987    1    50          
1977-03-25 07   16.9   120.5    984    2    55          
1977-03-25 10   17.1   120.1    982    2    60          
1977-03-25 13   17.3   119.8    980    2    65          
1977-03-25 16   17.6   119.6    977    2    70          
1977-03-25 19   17.8   119.3    973    2    75          
1977-03-25 22   18.0   119.1    969    3    80          
1977-03-26 01   18.2   118.9    965    3    80          
1977-03-26 04   18.6   118.8    963    3    85          
1977-03-26 07   18.9   118.7    962    3    85          
1977-03-26 10   19.2   118.7    961    3    85          
1977-03-26 13   19.6   118.7    960    3    90          
1977-03-26 16   19.9   118.9    960    3    90          
1977-03-26 19   20.1   119.0    965    3    90          
1977-03-26 20   20.2   119.1                90          
1977-03-26 22   20.3   119.2    972    2    75          
1977-03-27 01   20.6   119.3    980    2    65          
1977-03-27 04   21.1   119.7    986    1    55          
1977-03-27 07   21.3   120.1    991    1    45          
1977-03-27 10   21.4   120.5    993    1    40          
1977-03-27 13   21.5   120.9    995    1    35          
1977-03-27 16   21.6   121.3    997         35          
1977-03-27 19   21.7   121.8    999         30          
1977-03-27 22   21.7   122.3   1001         25          
1977-03-28 01   21.8   122.8   1002         25          
Winds are 10-min average.

Tropical cyclone tracks developed by Michael Bath using data from the Bureau of Meteorology and Google Maps.


[Australian Severe Weather index] [Copyright Notice] [Email Contacts] [Search This Site] [Privacy Policy]
Document: tropical_cyclone_leo.htm Updated: 4 April 2018